Strona główna
METAR-TAF:

METAR-TAF

Lotnisko :

Port lotniczy Tarakan-Juwata

Tarakan, Indonezja

Szerokość geograficzna: 03-19-36N, Długość geograficzna: 117-33-56E, wysokość: 6 m

Aktualna obserwacja pogody

Raport powstał 53 minut temu, godzina 04:00 UTC
Wiatr 2 kt od zachód
Temperatura 30°C
Wilgotność 75%
Ciśnienie 1012 hPa

METAR: WAQQ 170400Z 27002KT 9000SCT015 30/25 Q1012

czas: 11:53 (04:53 UTC)

Prognoza

Raport powstał 5 godziny i 53 minut temu, godzina 23:00 UTC
Prognoza ważna od 17 godzina 00 UTC do 17 godzina 12 UTC
Wiatr 8 kt od południowo-południowy zachód
Widzialność: 1000 m
Przerywane chmury na wysokości 1400 ft
deszcz
Stopniowe zmiany
od 17 godzina 00 UTC do 17 godzina 02 UTC
Widzialność: 7000 m
słaby deszcz
Stopniowe zmiany
od 17 godzina 02 UTC do 17 godzina 04 UTC
Widzialność 10 km lub więcej
Rozproszone chmury na wysokości 1500 ft

TAF: WAQQ 162300Z 1700/1712 20008KT 1000 RA BKN014 BECMG 1700/1702 7000 -RA BECMG 1702/1704 9999 NSW SCT015

Obserwacja i prognoza pogody dla ponad 4000 lotnisk (raport METAR i TAF).

Dostępne stacje oznaczono żółtymi i czerwonymi punktami na mapie.

Najedź kursorem aby zobaczyć nazwę stacji.

Kliknij aby zobaczyć obserwacje i prognozy pogody.

Aby zmienić mapę: kliknij na zielony przycisk z czarnym krzyżykiem, aby powiększyć; na zielony przycisk z myślnikiem, aby pomniejszyć; na zielone strzałki, aby przejść do map sąsiednich.


METAR-TAF: